Miami, FL

4:54 PM EDT on June 26, 2016 (GMT -0400)
Miami International | | Change Station

Elev 13 ft 25.79 °N, 80.32 °W | Updated 1 hour ago

Mostly Cloudy
Mostly Cloudy
84 °F
Feels Like 90 °F
N
6
Wind Variable Wind from Variable

Today
High -- | Low -- °F
--% Chance of Precip.
Yesterday
High -- | Low -- °F
Precip. -- in
Pressure 30.07 in
Visibility 10.0 miles
Clouds Scattered Clouds 4200 ft
Mostly Cloudy 25000 ft
Heat Index 90 °F
Dew Point 73 °F
Humidity 69%
Rainfall 0.00 in
Snow Depth Not available.
6:31 AM 8:16 PM
Waning Gibbous, 60% visible
METAR KMIA 261953Z VRB05KT 10SM SCT042CB BKN250 29/23 A3007 RMK AO2 SLP181 CB W MOV S T02890228
Pressure 30.07 in
Visibility 10.0 miles
Clouds Scattered Clouds 4200 ft
Mostly Cloudy 25000 ft
Heat Index 90 °F
Dew Point 73 °F
Humidity 69%
Rainfall 0.00 in
Snow Depth Not available.
6:31 AM 8:16 PM
Waning Gibbous, 60% visible
METAR KMIA 261953Z VRB05KT 10SM SCT042CB BKN250 29/23 A3007 RMK AO2 SLP181 CB W MOV S T02890228

10-Day Weather Forecast

Almanac

Astronomy

Jun. 26, 2016 Rise Set
Actual Time
Civil Twilight
Nautical Twilight
Astronomical Twilight
Moon
Length of Visible Light
Length of Day
Tomorrow will be .
, % of the Moon is Illuminated

Today's Extremes

State Highs State Lows

Community

WunderPhotos

Upload Photos

1,920,863 photos uploaded!

WunderBlog® & News

Nearby

Air Quality

  Air Quality AQ Index Pollutant
Not available.

Snow Depth

Station Depth Elevation

Earthquake Activity

City Distance Mag. Time & Date
Minimum magnitude displayed is 2.5.

Coastal Water Temperatures

Place Temperature

Stations

Nearby Weather Stations

Station Location Temp. Windchill Dew Point Humidity Wind Precip. Elev Updated Type
                   

Watches & Warnings

There are currently no watches in effect.